Time;durP1;ratioP1;P1;durP2;ratioP2;P2;SDS_P1;SDS_P2;PMS_P1;PMS_P2;Temp;Humidity;BMP_temperature;BMP_pressure;BME280_temperature;BME280_humidity;BME280_pressure;Samples;Min_cycle;Max_cycle;Signal;HPM_P1;HPM_P2
2023/10/19 00:01:53;;;;;;;14.30;13.00;;;;;;;10.91;100.00;98640.75;5021314;28;20629;-84
2023/10/19 00:04:19;;;;;;;13.53;12.37;;;;;;;10.91;100.00;98638.19;5019879;28;20306;-81
2023/10/19 00:06:48;;;;;;;13.80;12.57;;;;;;;10.93;100.00;98641.56;5016931;28;20698;-83
2023/10/19 00:09:15;;;;;;;14.20;12.93;;;;;;;10.93;100.00;98636.38;5018638;28;20183;-85
2023/10/19 00:11:40;;;;;;;13.40;12.30;;;;;;;10.93;100.00;98628.63;5017883;28;20185;-85
2023/10/19 00:14:15;;;;;;;15.20;13.90;;;;;;;10.93;100.00;98622.56;5016611;28;20199;-83
2023/10/19 00:16:50;;;;;;;13.57;12.43;;;;;;;10.94;100.00;98619.09;5017787;28;20184;-84
2023/10/19 00:19:19;;;;;;;15.03;13.70;;;;;;;10.94;100.00;98613.91;5023725;28;20201;-83
2023/10/19 00:21:50;;;;;;;12.70;11.63;;;;;;;10.97;100.00;98613.81;5023370;28;20719;-82
2023/10/19 00:24:19;;;;;;;14.00;12.80;;;;;;;10.97;100.00;98609.47;5017825;28;20635;-82
2023/10/19 00:26:45;;;;;;;13.13;12.03;;;;;;;10.98;100.00;98608.56;5014301;28;20267;-83
2023/10/19 00:31:56;;;;;;;12.97;11.97;;;;;;;11.02;100.00;98605.88;5020616;28;20226;-84
2023/10/19 00:34:21;;;;;;;12.93;11.83;;;;;;;11.03;100.00;98608.41;5018100;28;20179;-82
2023/10/19 00:36:48;;;;;;;13.63;12.43;;;;;;;11.04;100.00;98604.91;5018421;28;20225;-81
2023/10/19 00:39:21;;;;;;;13.27;12.10;;;;;;;11.07;100.00;98607.38;5017413;28;20191;-82
2023/10/19 00:41:47;;;;;;;13.00;11.90;;;;;;;11.09;100.00;98607.34;5014972;28;20192;-82
2023/10/19 00:44:16;;;;;;;12.77;11.67;;;;;;;11.12;100.00;98602.00;5014576;28;20571;-83
2023/10/19 00:49:09;;;;;;;12.30;11.30;;;;;;;11.15;100.00;98601.91;5020728;28;20274;-80
2023/10/19 00:52:02;;;;;;;11.93;10.93;;;;;;;11.17;100.00;98596.69;5021399;28;20180;-81
2023/10/19 00:54:50;;;;;;;13.70;12.50;;;;;;;11.16;100.00;98597.59;5024033;28;20218;-81
2023/10/19 00:57:20;;;;;;;11.83;10.93;;;;;;;11.15;100.00;98594.13;5020839;28;20183;-83
2023/10/19 00:59:54;;;;;;;11.53;10.63;;;;;;;11.19;100.00;98589.69;5019342;28;20271;-84
2023/10/19 01:04:51;;;;;;;12.50;11.50;;;;;;;11.21;100.00;98580.09;5018723;28;20294;-82
2023/10/19 01:09:56;;;;;;;13.27;12.17;;;;;;;11.23;100.00;98591.25;5021625;28;20195;-84
2023/10/19 01:12:25;;;;;;;13.17;12.07;;;;;;;11.24;100.00;98583.44;5016716;28;20211;-84
2023/10/19 01:15:16;;;;;;;14.57;13.37;;;;;;;11.25;100.00;98587.72;5017038;28;20183;-83
2023/10/19 01:17:44;;;;;;;12.97;11.97;;;;;;;11.27;100.00;98588.47;5012484;28;20334;-80
2023/10/19 01:20:19;;;;;;;12.17;11.17;;;;;;;11.28;100.00;98584.16;5017409;28;20189;-80
2023/10/19 01:25:52;;;;;;;13.07;12.03;;;;;;;11.29;100.00;98578.91;5029083;28;20200;-83
2023/10/19 01:28:18;;;;;;;12.27;11.27;;;;;;;11.31;100.00;98565.06;5019256;28;20206;-80
2023/10/19 01:30:44;;;;;;;13.03;11.97;;;;;;;11.33;100.00;98550.28;5017501;28;20664;-83
2023/10/19 01:33:15;;;;;;;12.80;11.80;;;;;;;11.35;100.00;98544.16;5012760;28;20239;-81
2023/10/19 01:38:25;;;;;;;12.97;11.77;;;;;;;11.39;100.00;98527.59;5017673;28;20367;-84
2023/10/19 01:40:51;;;;;;;11.37;10.47;;;;;;;11.38;100.00;98528.47;5022445;28;20263;-84
2023/10/19 01:43:30;;;;;;;12.40;11.40;;;;;;;11.39;100.00;98518.97;5015911;28;20219;-80
2023/10/19 01:45:56;;;;;;;11.10;10.20;;;;;;;11.38;100.00;98518.13;5018003;28;20274;-82
2023/10/19 01:48:28;;;;;;;10.73;9.87;;;;;;;11.39;100.00;98516.41;5015078;28;20203;-81
2023/10/19 01:50:53;;;;;;;10.40;9.60;;;;;;;11.37;100.00;98510.44;5025015;28;20231;-83
2023/10/19 01:53:22;;;;;;;10.47;9.67;;;;;;;11.37;100.00;98505.25;5017226;28;20255;-81
2023/10/19 01:55:57;;;;;;;9.67;8.90;;;;;;;11.35;100.00;98505.28;5018493;28;20183;-84
2023/10/19 01:58:24;;;;;;;9.87;9.07;;;;;;;11.35;100.00;98491.53;5017592;28;20183;-80
2023/10/19 02:00:54;;;;;;;10.30;9.50;;;;;;;11.36;100.00;98493.22;5032323;28;20206;-82
2023/10/19 02:03:20;;;;;;;9.70;8.90;;;;;;;11.35;100.00;98491.53;5020831;28;20619;-83
2023/10/19 02:05:49;;;;;;;10.77;9.87;;;;;;;11.35;100.00;98484.56;5016227;28;20672;-83
2023/10/19 02:08:16;;;;;;;10.73;9.83;;;;;;;11.37;100.00;98479.34;5011871;28;20203;-83
2023/10/19 02:10:46;;;;;;;10.30;9.50;;;;;;;11.38;100.00;98478.44;5016237;28;20219;-83
2023/10/19 02:13:15;;;;;;;10.97;10.17;;;;;;;11.36;100.00;98481.09;5012358;28;20211;-82
2023/10/19 02:15:42;;;;;;;11.23;10.33;;;;;;;11.35;100.00;98473.38;5016700;28;21083;-84
2023/10/19 02:18:08;;;;;;;10.40;9.60;;;;;;;11.36;100.00;98477.66;5015089;28;20579;-78
2023/10/19 02:20:34;;;;;;;10.07;9.27;;;;;;;11.37;100.00;98467.22;5024728;28;20190;-81
2023/10/19 02:23:03;;;;;;;10.57;9.77;;;;;;;11.36;100.00;98478.50;5020610;28;20648;-80
2023/10/19 02:25:30;;;;;;;8.97;8.30;;;;;;;11.38;100.00;98475.84;5026024;28;20248;-83
2023/10/19 02:27:56;;;;;;;10.53;9.73;;;;;;;11.40;100.00;98480.06;5014356;28;20192;-81
2023/10/19 02:30:24;;;;;;;11.70;10.90;;;;;;;11.39;100.00;98486.13;5015752;28;20195;-80
2023/10/19 02:32:50;;;;;;;12.00;11.10;;;;;;;11.37;100.00;98482.78;5008428;28;20245;-79
2023/10/19 02:35:16;;;;;;;11.30;10.40;;;;;;;11.38;100.00;98494.00;5022569;28;20187;-81
2023/10/19 02:37:41;;;;;;;14.73;13.43;;;;;;;11.37;100.00;98484.53;5012551;28;20193;-82
2023/10/19 02:40:19;;;;;;;13.07;12.00;;;;;;;11.33;100.00;98489.00;5028729;28;20198;-82
2023/10/19 02:42:48;;;;;;;13.47;12.27;;;;;;;11.34;100.00;98484.66;5013617;28;20754;-80
2023/10/19 02:45:18;;;;;;;11.77;10.87;;;;;;;11.37;100.00;98484.53;5016115;28;20297;-83
2023/10/19 02:47:44;;;;;;;11.30;10.40;;;;;;;11.36;100.00;98480.25;5021543;28;20180;-81
2023/10/19 02:50:16;;;;;;;11.03;10.13;;;;;;;11.37;100.00;98487.13;5011272;28;20223;-82
2023/10/19 02:52:43;;;;;;;11.87;10.87;;;;;;;11.38;100.00;98488.81;5010393;28;20277;-83
2023/10/19 02:55:11;;;;;;;11.20;10.27;;;;;;;11.40;100.00;98493.00;5025617;28;20221;-79
2023/10/19 02:57:37;;;;;;;10.50;9.70;;;;;;;11.42;100.00;98485.16;5020149;28;20234;-82
2023/10/19 03:00:12;;;;;;;12.77;11.67;;;;;;;11.42;100.00;98478.25;5028333;28;20201;-81
2023/10/19 03:02:38;;;;;;;12.70;11.70;;;;;;;11.42;100.00;98475.66;5018126;28;20214;-82
2023/10/19 03:05:12;;;;;;;11.97;11.07;;;;;;;11.44;100.00;98478.19;5027438;28;20205;-81
2023/10/19 03:07:38;;;;;;;10.70;9.90;;;;;;;11.46;100.00;98475.53;5016740;28;20199;-81
2023/10/19 03:10:05;;;;;;;11.03;10.17;;;;;;;11.48;100.00;98476.31;5019691;28;20193;-82
2023/10/19 03:12:30;;;;;;;12.80;11.80;;;;;;;11.49;100.00;98471.06;5015266;28;20215;-79
2023/10/19 03:14:56;;;;;;;10.77;9.90;;;;;;;11.51;100.00;98465.81;5028419;28;20191;-81
2023/10/19 03:17:21;;;;;;;11.97;11.07;;;;;;;11.53;100.00;98458.81;5019594;28;20588;-79
2023/10/19 03:19:48;;;;;;;10.87;10.07;;;;;;;11.54;100.00;98451.00;5023972;28;20195;-83
2023/10/19 03:22:14;;;;;;;10.60;9.80;;;;;;;11.54;100.00;98448.41;5018041;28;20211;-82
2023/10/19 03:24:45;;;;;;;11.97;10.87;;;;;;;11.54;100.00;98451.00;5030389;28;20182;-80
2023/10/19 03:27:16;;;;;;;9.53;8.83;;;;;;;11.51;100.00;98445.09;5042242;28;20243;-79
2023/10/19 03:29:46;;;;;;;9.00;8.30;;;;;;;11.50;100.00;98444.25;5022301;28;20247;-83
2023/10/19 03:32:12;;;;;;;9.30;8.60;;;;;;;11.48;100.00;98432.28;5019841;28;20204;-81
2023/10/19 03:34:38;;;;;;;9.70;8.93;;;;;;;11.44;100.00;98427.22;5024663;28;20249;-80
2023/10/19 03:37:12;;;;;;;9.07;8.37;;;;;;;11.42;100.00;98418.69;5032020;28;20194;-81
2023/10/19 03:39:37;;;;;;;9.13;8.33;;;;;;;11.39;100.00;98421.41;5016317;28;20179;-80
2023/10/19 03:42:05;;;;;;;11.00;10.10;;;;;;;11.35;100.00;98422.41;5024175;28;20928;-79
2023/10/19 03:44:44;;;;;;;10.13;9.33;;;;;;;11.30;100.00;98411.44;5013617;28;20204;-82
2023/10/19 03:47:13;;;;;;;9.20;8.50;;;;;;;11.24;100.00;98402.19;5022583;28;20195;-82
2023/10/19 03:49:39;;;;;;;10.63;9.83;;;;;;;11.18;100.00;98407.59;5024173;28;20180;-81
2023/10/19 03:54:38;;;;;;;10.80;9.90;;;;;;;11.08;100.00;98395.97;5020495;28;20172;-82
2023/10/19 03:57:06;;;;;;;10.17;9.27;;;;;;;11.03;100.00;98398.75;5015038;28;20207;-83
2023/10/19 03:59:33;;;;;;;9.63;8.80;;;;;;;11.00;100.00;98385.06;5016484;28;20639;-81
2023/10/19 04:02:00;;;;;;;9.73;8.93;;;;;;;10.95;100.00;98388.69;5017064;28;20192;-84
2023/10/19 04:04:26;;;;;;;9.00;8.30;;;;;;;10.91;100.00;98396.63;5020570;28;20206;-83
2023/10/19 04:06:57;;;;;;;9.77;8.97;;;;;;;10.85;100.00;98395.13;5018684;28;20315;-85
2023/10/19 04:09:28;;;;;;;9.70;8.80;;;;;;;10.80;100.00;98395.34;5017570;28;20184;-80
2023/10/19 04:11:56;;;;;;;9.60;8.80;;;;;;;10.75;100.00;98394.66;5014957;28;20184;-82
2023/10/19 04:14:21;;;;;;;9.43;8.73;;;;;;;10.73;100.00;98393.03;5022328;28;20184;-82
2023/10/19 04:16:48;;;;;;;9.87;9.07;;;;;;;10.67;100.00;98397.56;5017269;28;20180;-83
2023/10/19 04:19:14;;;;;;;9.63;8.83;;;;;;;10.65;100.00;98395.94;5020231;28;20608;-82
2023/10/19 04:21:43;;;;;;;9.40;8.67;;;;;;;10.61;100.00;98390.06;5023589;28;20242;-82
2023/10/19 04:24:10;;;;;;;9.67;8.83;;;;;;;10.58;100.00;98397.09;5023210;28;20196;-79
2023/10/19 04:26:37;;;;;;;10.03;9.20;;;;;;;10.55;100.00;98384.28;5016575;28;20176;-81
2023/10/19 04:29:09;;;;;;;9.93;9.13;;;;;;;10.51;100.00;98389.56;5017010;28;20183;-79
2023/10/19 04:31:37;;;;;;;11.13;10.20;;;;;;;10.47;100.00;98384.59;5015334;28;20184;-82
2023/10/19 04:34:07;;;;;;;11.17;10.27;;;;;;;10.44;100.00;98389.88;5017952;28;20199;-78
2023/10/19 04:36:35;;;;;;;11.30;10.40;;;;;;;10.40;100.00;98390.88;5020273;28;20176;-78
2023/10/19 04:39:01;;;;;;;12.07;11.07;;;;;;;10.35;100.00;98383.28;5010692;28;20187;-82
2023/10/19 04:41:27;;;;;;;12.63;11.53;;;;;;;10.32;100.00;98392.00;5012485;28;20219;-82
2023/10/19 04:43:54;;;;;;;13.40;12.20;;;;;;;10.29;100.00;98386.09;5018453;28;20220;-82
2023/10/19 04:46:20;;;;;;;13.40;12.27;;;;;;;10.26;100.00;98389.66;5044587;28;20186;-81
2023/10/19 04:48:45;;;;;;;14.17;12.90;;;;;;;10.23;100.00;98387.16;5015665;28;20747;-83
2023/10/19 04:51:11;;;;;;;15.40;14.00;;;;;;;10.22;100.00;98391.50;5018435;28;20191;-83
2023/10/19 04:53:37;;;;;;;14.50;13.20;;;;;;;10.21;100.00;98387.25;5018868;28;20232;-80
2023/10/19 04:56:08;;;;;;;15.43;14.03;;;;;;;10.22;100.00;98381.16;5028357;28;20182;-82
2023/10/19 04:58:35;;;;;;;17.07;15.47;;;;;;;10.22;100.00;98372.56;5015108;28;20277;-83
2023/10/19 05:01:01;;;;;;;15.70;14.30;;;;;;;10.24;100.00;98382.84;5016637;28;20246;-80
2023/10/19 05:03:27;;;;;;;15.80;14.40;;;;;;;10.24;100.00;98382.84;5021470;28;20226;-81
2023/10/19 05:05:53;;;;;;;14.67;13.37;;;;;;;10.25;100.00;98385.38;5019075;28;20199;-81
2023/10/19 05:08:18;;;;;;;14.57;13.27;;;;;;;10.27;100.00;98375.00;5024117;28;20270;-83
2023/10/19 05:10:44;;;;;;;14.77;13.37;;;;;;;10.30;100.00;98359.34;5018314;28;20188;-81
2023/10/19 05:13:10;;;;;;;14.03;12.73;;;;;;;10.32;100.00;98357.53;5016333;28;20210;-83
2023/10/19 05:15:35;;;;;;;15.23;13.73;;;;;;;10.35;100.00;98339.31;5021827;28;20179;-81
2023/10/19 05:18:02;;;;;;;14.57;13.27;;;;;;;10.38;100.00;98344.41;5023146;28;20214;-82
2023/10/19 05:20:27;;;;;;;16.83;15.13;;;;;;;10.40;100.00;98352.09;5020657;28;20226;-79
2023/10/19 05:22:52;;;;;;;13.80;12.67;;;;;;;10.41;100.00;98351.19;5027127;28;20230;-82
2023/10/19 05:25:18;;;;;;;13.87;12.67;;;;;;;10.42;100.00;98356.31;5024670;28;20186;-84
2023/10/19 05:27:45;;;;;;;15.40;13.93;;;;;;;10.43;100.00;98358.00;5032669;28;20194;-80
2023/10/19 05:30:11;;;;;;;16.17;14.73;;;;;;;10.44;100.00;98361.44;5043617;28;20441;-78
2023/10/19 05:32:36;;;;;;;16.83;15.20;;;;;;;10.45;100.00;98360.53;5033540;28;20591;-81
2023/10/19 05:35:04;;;;;;;15.73;14.33;;;;;;;10.46;100.00;98354.44;5021789;28;20191;-81
2023/10/19 05:37:33;;;;;;;15.00;13.60;;;;;;;10.46;100.00;98350.09;5018945;28;22044;-82
2023/10/19 05:40:04;;;;;;;15.87;14.37;;;;;;;10.48;100.00;98356.06;5015640;28;20840;-83
2023/10/19 05:42:30;;;;;;;15.03;13.53;;;;;;;10.51;100.00;98352.53;5016931;28;20285;-80
2023/10/19 05:44:55;;;;;;;14.43;13.13;;;;;;;10.50;100.00;98346.50;5020855;28;20249;-80
2023/10/19 05:47:20;;;;;;;14.30;13.00;;;;;;;10.52;100.00;98349.03;5014696;28;20608;-84
2023/10/19 05:49:46;;;;;;;14.30;13.07;;;;;;;10.50;100.00;98343.09;5018498;28;20714;-81
2023/10/19 05:52:11;;;;;;;16.10;14.70;;;;;;;10.49;100.00;98344.81;5023448;28;20211;-82
2023/10/19 05:54:37;;;;;;;21.83;19.73;;;;;;;10.48;100.00;98343.13;5020309;28;20194;-83
2023/10/19 05:57:07;;;;;;;22.07;20.10;;;;;;;10.46;100.00;98347.53;5020934;28;20195;-82
2023/10/19 05:59:33;;;;;;;20.97;18.97;;;;;;;10.45;100.00;98347.59;5019315;28;20689;-80
2023/10/19 06:01:58;;;;;;;17.50;15.90;;;;;;;10.43;100.00;98346.81;5016283;28;20200;-82
2023/10/19 06:04:24;;;;;;;17.37;15.87;;;;;;;10.40;100.00;98350.38;5019308;28;20566;-84
2023/10/19 06:06:49;;;;;;;16.00;14.70;;;;;;;10.38;100.00;98352.16;5022440;28;20334;-84
2023/10/19 06:09:15;;;;;;;16.73;15.33;;;;;;;10.35;100.00;98354.84;5014369;28;20184;-81
2023/10/19 06:11:46;;;;;;;17.73;16.10;;;;;;;10.29;100.00;98353.34;5021667;28;20183;-81
2023/10/19 06:14:11;;;;;;;16.20;14.80;;;;;;;10.27;100.00;98349.97;5019158;28;20639;-83
2023/10/19 06:16:37;;;;;;;15.10;13.90;;;;;;;10.24;100.00;98347.50;5010672;28;20202;-82
2023/10/19 06:19:03;;;;;;;14.70;13.50;;;;;;;10.22;100.00;98346.72;5017395;28;20662;-79
2023/10/19 06:21:30;;;;;;;14.60;13.30;;;;;;;10.22;100.00;98352.75;5014755;28;20186;-82
2023/10/19 06:23:55;;;;;;;15.20;13.83;;;;;;;10.25;100.00;98349.19;5022348;28;20213;-84
2023/10/19 06:26:21;;;;;;;14.17;12.97;;;;;;;10.25;100.00;98349.19;5013978;28;20192;-80
2023/10/19 06:28:46;;;;;;;13.50;12.40;;;;;;;10.30;100.00;98357.59;5020379;28;20492;-82
2023/10/19 06:31:12;;;;;;;15.10;13.80;;;;;;;10.34;100.00;98359.19;5024517;28;20288;-82
2023/10/19 06:33:41;;;;;;;15.43;14.03;;;;;;;10.40;100.00;98352.09;5022453;28;20218;-78
2023/10/19 06:36:07;;;;;;;16.07;14.73;;;;;;;10.45;100.00;98342.41;5026749;28;20648;-81
2023/10/19 06:38:32;;;;;;;15.93;14.50;;;;;;;10.48;100.00;98345.72;5043168;28;20195;-78
2023/10/19 06:40:58;;;;;;;14.07;12.87;;;;;;;10.49;100.00;98344.81;5046869;28;20648;-80
2023/10/19 06:43:28;;;;;;;13.77;12.57;;;;;;;10.53;100.00;98350.69;5014580;28;20236;-80
2023/10/19 06:45:54;;;;;;;14.67;13.43;;;;;;;10.57;100.00;98347.09;5020403;28;20194;-81
2023/10/19 06:48:20;;;;;;;15.67;14.37;;;;;;;10.57;100.00;98341.09;5024183;28;20222;-81
2023/10/19 06:50:46;;;;;;;15.10;13.80;;;;;;;10.60;100.00;98348.72;5024819;28;20187;-81
2023/10/19 06:53:11;;;;;;;13.53;12.43;;;;;;;10.65;100.00;98345.06;5025511;28;20329;-82
2023/10/19 06:55:36;;;;;;;12.13;11.13;;;;;;;10.72;100.00;98345.66;5023788;28;20778;-82
2023/10/19 06:58:02;;;;;;;13.33;12.20;;;;;;;10.78;100.00;98344.56;5022169;28;20191;-79
2023/10/19 07:00:27;;;;;;;11.73;10.83;;;;;;;10.86;100.00;98341.66;5053863;28;20190;-80
2023/10/19 07:02:56;;;;;;;14.27;12.97;;;;;;;10.90;100.00;98338.88;5022404;28;20226;-82
2023/10/19 07:05:23;;;;;;;12.30;11.13;;;;;;;10.95;100.00;98336.94;5025212;28;20597;-82
2023/10/19 07:07:55;;;;;;;13.90;12.50;;;;;;;11.01;100.00;98341.00;5029890;28;20191;-83
2023/10/19 07:10:20;;;;;;;11.77;10.73;;;;;;;11.06;100.00;98338.22;5030894;28;20935;-82
2023/10/19 07:12:48;;;;;;;12.23;11.23;;;;;;;11.12;100.00;98327.59;5027229;28;20207;-82
2023/10/19 07:15:14;;;;;;;11.10;10.20;;;;;;;11.18;100.00;98332.53;5025873;28;20190;-81
2023/10/19 07:17:41;;;;;;;10.73;9.83;;;;;;;11.25;100.00;98338.28;5024472;28;20346;-82
2023/10/19 07:20:09;;;;;;;9.73;8.93;;;;;;;11.33;100.00;98330.19;5026621;28;20274;-83
2023/10/19 07:22:39;;;;;;;10.40;9.57;;;;;;;11.40;100.00;98339.38;5011405;28;20314;-81
2023/10/19 07:25:06;;;;;;;11.27;10.37;;;;;;;11.46;100.00;98341.69;5016196;28;20196;-83
2023/10/19 07:27:34;;;;;;;11.97;10.97;;;;;;;11.53;100.00;98347.44;5020192;28;20202;-81
2023/10/19 07:30:01;;;;;;;10.40;9.60;;;;;;;11.60;100.00;98356.63;5024371;28;20241;-83
2023/10/19 07:32:27;;;;;;;9.77;8.90;;;;;;;11.69;100.00;98358.78;5030543;28;20199;-79
2023/10/19 07:34:54;;;;;;;9.97;9.13;;;;;;;11.76;100.00;98350.75;5060708;28;20172;-78
2023/10/19 07:37:21;;;;;;;9.47;8.77;;;;;;;11.83;100.00;98345.22;5044176;28;20218;-84
2023/10/19 07:39:47;;;;;;;8.90;8.20;;;;;;;11.92;100.00;98338.78;5037307;28;20194;-84
2023/10/19 07:42:12;;;;;;;9.60;8.80;;;;;;;12.03;100.00;98335.72;5026855;28;20204;-82
2023/10/19 07:44:38;;;;;;;8.30;7.70;;;;;;;12.11;100.00;98337.94;5025998;28;20211;-80
2023/10/19 07:47:03;;;;;;;8.57;7.97;;;;;;;12.21;100.00;98334.03;5024273;28;20211;-79
2023/10/19 07:49:29;;;;;;;10.80;9.80;;;;;;;12.25;100.00;98334.72;5019022;28;20183;-84
2023/10/19 07:51:55;;;;;;;10.43;9.43;;;;;;;12.33;100.00;98333.44;5019309;28;20183;-83
2023/10/19 07:54:20;;;;;;;9.10;8.40;;;;;;;12.40;100.00;98328.81;5014550;28;20180;-83
2023/10/19 07:56:46;;;;;;;8.67;8.00;;;;;;;12.50;100.00;98329.19;5021811;28;20180;-81
2023/10/19 07:59:12;;;;;;;7.63;6.97;;;;;;;12.60;100.00;98325.25;5022665;28;20191;-79
2023/10/19 08:01:38;;;;;;;9.27;8.50;;;;;;;12.70;100.00;98320.44;5021065;28;20281;-81
2023/10/19 08:04:03;;;;;;;8.27;7.67;;;;;;;12.80;100.00;98326.03;5013788;28;20299;-78
2023/10/19 08:06:29;;;;;;;8.97;8.17;;;;;;;12.93;100.00;98321.06;5022984;28;20651;-84
2023/10/19 08:08:55;;;;;;;8.97;8.27;;;;;;;13.06;100.00;98319.53;5020046;28;20287;-82
2023/10/19 08:11:21;;;;;;;7.20;6.70;;;;;;;13.14;100.00;98326.94;5018618;28;20229;-81
2023/10/19 08:13:49;;;;;;;6.30;5.80;;;;;;;13.26;100.00;98321.09;5017735;28;21028;-83
2023/10/19 08:16:16;;;;;;;6.83;6.33;;;;;;;13.37;100.00;98323.16;5018013;28;20192;-80
2023/10/19 08:18:42;;;;;;;7.00;6.50;;;;;;;13.47;100.00;98333.06;5013809;28;20200;-82
2023/10/19 08:21:07;;;;;;;5.90;5.50;;;;;;;13.57;100.00;98321.28;5014690;28;20187;-80
2023/10/19 08:23:33;;;;;;;8.23;7.43;;;;;;;13.60;100.00;98321.13;5024213;28;20233;-83
2023/10/19 08:25:59;;;;;;;7.73;7.03;;;;;;;13.66;100.00;98333.78;5024604;28;20171;-84
2023/10/19 08:28:25;;;;;;;7.97;7.27;;;;;;;13.74;100.00;98319.53;5017720;28;20222;-81
2023/10/19 08:30:56;;;;;;;7.40;6.77;;;;;;;13.82;100.00;98315.59;5019318;28;20219;-82
2023/10/19 08:33:29;;;;;;;8.10;7.40;;;;;;;13.87;100.00;98312.75;5016729;28;20213;-80
2023/10/19 08:35:56;;;;;;;7.67;7.07;;;;;;;13.94;100.00;98310.66;5012301;28;20188;-79
2023/10/19 08:38:25;;;;;;;7.17;6.57;;;;;;;13.99;100.00;98317.28;5023862;28;20192;-83
2023/10/19 08:40:50;;;;;;;6.50;6.00;;;;;;;14.05;100.00;98313.53;5014623;28;20246;-81
2023/10/19 08:43:18;;;;;;;7.00;6.40;;;;;;;14.12;100.00;98314.84;5013498;28;20214;-83
2023/10/19 08:45:44;;;;;;;6.57;6.07;;;;;;;14.15;100.00;98314.69;5049513;28;20664;-82
2023/10/19 08:48:11;;;;;;;6.43;5.93;;;;;;;14.23;100.00;98311.66;5023735;28;20195;-83
2023/10/19 08:50:40;;;;;;;7.23;6.63;;;;;;;14.30;100.00;98302.56;5019581;28;20193;-83
2023/10/19 08:53:13;;;;;;;6.60;6.00;;;;;;;14.36;100.00;98306.63;5017592;28;20239;-79
2023/10/19 08:55:39;;;;;;;8.23;7.53;;;;;;;14.32;100.00;98299.91;5018828;28;20225;-83
2023/10/19 08:58:05;;;;;;;6.90;6.40;;;;;;;14.33;100.00;98293.78;5023153;28;20225;-82
2023/10/19 09:00:46;;;;;;;7.47;6.87;;;;;;;14.33;100.00;98288.56;5020375;28;20224;-82
2023/10/19 09:03:13;;;;;;;7.13;6.63;;;;;;;14.33;100.00;98286.78;5045848;28;20306;-81
2023/10/19 09:05:40;;;;;;;7.80;7.20;;;;;;;14.32;100.00;98290.31;5021753;28;20208;-81
2023/10/19 09:08:06;;;;;;;9.30;8.37;;;;;;;14.35;100.00;98301.47;5024413;28;20196;-83
2023/10/19 09:10:31;;;;;;;7.20;6.60;;;;;;;14.47;100.00;98290.38;5021546;28;20202;-83
2023/10/19 09:13:09;;;;;;;7.80;7.20;;;;;;;14.48;100.00;98279.88;5015538;28;20208;-79
2023/10/19 09:15:38;;;;;;;7.07;6.57;;;;;;;14.57;100.00;98275.91;5021111;28;20185;-83
2023/10/19 09:18:21;;;;;;;8.60;7.97;;;;;;;14.62;100.00;98267.84;5025385;28;20184;-82
2023/10/19 09:21:07;;;;;;;7.80;7.10;;;;;;;14.64;100.00;98279.81;5022572;28;20190;-81
2023/10/19 09:23:33;;;;;;;6.90;6.33;;;;;;;14.78;100.00;98276.47;5022013;28;20206;-78
2023/10/19 09:26:03;;;;;;;7.07;6.47;;;;;;;14.92;100.00;98273.03;5026057;28;20180;-82
2023/10/19 09:28:29;;;;;;;6.17;5.67;;;;;;;15.01;100.00;98273.44;5024600;28;20212;-82
2023/10/19 09:30:55;;;;;;;6.53;6.03;;;;;;;15.10;100.00;98270.25;5026557;28;20190;-82
2023/10/19 09:33:24;;;;;;;6.63;6.03;;;;;;;15.24;100.00;98266.84;5027203;28;20199;-82
2023/10/19 09:35:52;;;;;;;6.80;6.20;;;;;;;15.36;100.00;98254.81;5045840;28;20243;-79
2023/10/19 09:38:27;;;;;;;7.67;6.97;;;;;;;15.48;100.00;98248.84;5046090;28;20179;-82
2023/10/19 09:41:00;;;;;;;7.43;6.80;;;;;;;15.58;100.00;98241.28;5031675;28;20280;-86
2023/10/19 09:43:39;;;;;;;7.13;6.53;;;;;;;15.69;100.00;98251.91;5022747;28;20627;-85
2023/10/19 09:46:09;;;;;;;7.67;6.93;;;;;;;15.80;100.00;98250.38;5017170;28;20214;-84
2023/10/19 09:48:42;;;;;;;6.50;6.00;;;;;;;15.86;100.00;98252.63;5024172;28;20969;-87
2023/10/19 09:51:09;;;;;;;6.63;6.13;;;;;;;15.91;100.00;98247.13;5016247;28;20191;-83
2023/10/19 09:53:37;;;;;;;7.40;6.40;;;;;;;15.97;100.00;98249.31;5019678;28;20598;-83
2023/10/19 09:56:06;;;;;;;8.10;7.43;;;;;;;16.06;100.00;98253.97;5023571;28;20191;-84
2023/10/19 09:58:39;;;;;;;7.03;6.40;;;;;;;16.08;100.00;98236.44;5023548;28;20196;-82
2023/10/19 10:01:11;;;;;;;6.93;6.33;;;;;;;16.09;100.00;98248.56;5021477;28;20206;-82
2023/10/19 10:03:53;;;;;;;7.00;6.37;;;;;;;16.09;100.00;98253.78;5021482;28;20226;-83
2023/10/19 10:06:51;;;;;;;6.90;6.33;;;;;;;16.04;100.00;98252.38;5020615;28;20194;-83
2023/10/19 10:09:23;;;;;;;7.63;7.00;;;;;;;15.96;100.00;98256.31;5022334;28;20282;-84
2023/10/19 10:11:52;;;;;;;7.13;6.53;;;;;;;15.90;100.00;98245.44;5017332;28;20671;-83
2023/10/19 10:14:28;;;;;;;7.03;6.47;;;;;;;15.86;100.00;98252.63;5022950;28;20267;-84
2023/10/19 10:17:01;;;;;;;6.73;6.23;;;;;;;15.77;100.00;98255.78;5024211;28;20735;-84
2023/10/19 10:19:26;;;;;;;7.53;6.43;;;;;;;15.69;100.00;98261.47;5015896;28;20653;-82
2023/10/19 10:22:11;;;;;;;7.13;6.43;;;;;;;15.60;100.00;98265.50;5015723;28;20216;-82
2023/10/19 10:24:44;;;;;;;7.40;6.63;;;;;;;15.50;100.00;98257.41;5022806;28;20681;-82
2023/10/19 10:27:13;;;;;;;7.27;6.67;;;;;;;15.39;100.00;98258.09;5022064;28;20202;-83
2023/10/19 10:30:06;;;;;;;7.43;6.73;;;;;;;15.29;100.00;98269.97;5025391;28;20189;-83
2023/10/19 10:32:50;;;;;;;7.00;6.40;;;;;;;15.15;100.00;98275.19;5017946;28;20261;-85
2023/10/19 10:35:39;;;;;;;7.10;6.50;;;;;;;15.03;100.00;98274.19;5017411;28;20215;-85
2023/10/19 10:38:09;;;;;;;6.77;6.17;;;;;;;14.94;100.00;98276.38;5024963;28;20202;-84
2023/10/19 10:40:43;;;;;;;7.97;7.27;;;;;;;14.88;100.00;98270.69;5021197;28;20183;-84
2023/10/19 10:43:10;;;;;;;8.13;7.43;;;;;;;14.83;100.00;98268.38;5027595;28;20238;-85
2023/10/19 10:45:36;;;;;;;7.87;7.27;;;;;;;14.78;100.00;98270.41;5026123;28;20191;-87
2023/10/19 10:48:01;;;;;;;7.73;7.13;;;;;;;14.73;100.00;98262.03;5018965;28;20233;-83
2023/10/19 10:50:30;;;;;;;7.43;6.93;;;;;;;14.69;100.00;98258.75;5023706;28;20185;-80
2023/10/19 10:52:57;;;;;;;8.10;7.50;;;;;;;14.69;100.00;98256.16;5021989;28;20204;-83
2023/10/19 10:55:23;;;;;;;8.10;7.50;;;;;;;14.68;100.00;98249.28;5015273;28;20307;-81
2023/10/19 10:57:49;;;;;;;12.03;10.93;;;;;;;14.61;100.00;98243.56;5014690;28;20214;-83
2023/10/19 11:00:15;;;;;;;12.10;10.90;;;;;;;14.54;100.00;98231.84;5020078;28;20662;-82
2023/10/19 11:02:45;;;;;;;9.80;9.00;;;;;;;14.60;100.00;98231.47;5022114;28;20213;-82
2023/10/19 11:05:12;;;;;;;11.27;10.33;;;;;;;14.62;100.00;98213.19;5020261;28;20213;-81
2023/10/19 11:08:01;;;;;;;13.73;12.43;;;;;;;14.50;100.00;98212.13;5015253;28;20588;-80
2023/10/19 11:10:27;;;;;;;11.90;10.90;;;;;;;14.46;100.00;98216.66;5020674;28;20592;-80
2023/10/19 11:13:03;;;;;;;9.97;9.17;;;;;;;14.50;100.00;98201.72;5016670;28;20215;-80
2023/10/19 11:15:29;;;;;;;10.10;9.30;;;;;;;14.51;100.00;98197.34;5018590;28;20217;-81
2023/10/19 11:17:54;;;;;;;13.97;12.60;;;;;;;14.44;100.00;98195.09;5025780;28;20257;-81
2023/10/19 11:20:25;;;;;;;13.80;12.60;;;;;;;14.39;100.00;98181.50;5024304;28;20256;-81
2023/10/19 11:22:55;;;;;;;14.20;12.90;;;;;;;14.37;100.00;98191.16;5025624;28;20263;-82
2023/10/19 11:25:29;;;;;;;15.40;14.00;;;;;;;14.23;100.00;98191.13;5024757;28;20203;-79
2023/10/19 11:27:58;;;;;;;15.90;14.53;;;;;;;14.13;100.00;98176.06;5048260;28;20189;-80
2023/10/19 11:30:25;;;;;;;18.17;16.47;;;;;;;14.10;100.00;98163.22;5019776;28;20190;-80
2023/10/19 11:32:52;;;;;;;16.50;15.00;;;;;;;14.10;100.00;98165.00;5016666;28;20762;-80
2023/10/19 11:35:21;;;;;;;17.10;15.60;;;;;;;14.15;100.00;98168.16;5018651;28;20195;-80
2023/10/19 11:37:47;;;;;;;14.03;12.87;;;;;;;14.21;100.00;98172.19;5022857;28;20236;-78
2023/10/19 11:40:13;;;;;;;16.27;14.77;;;;;;;14.26;100.00;98176.19;5043103;28;20181;-79
2023/10/19 11:42:38;;;;;;;14.75;13.35;;;;;;;14.34;100.00;98183.56;5034454;28;22145;-79